sensor_id;sensor_type;location;lat;lon;timestamp;temperature;humidity
11944;DHT22;6031;50.220;10.122;2023-03-01T00:01:10;-2.50;7.20
11944;DHT22;6031;50.220;10.122;2023-03-01T00:03:36;-2.50;99.90
11944;DHT22;6031;50.220;10.122;2023-03-01T00:06:02;-2.60;99.30
11944;DHT22;6031;50.220;10.122;2023-03-01T00:08:28;-2.70;99.90
11944;DHT22;6031;50.220;10.122;2023-03-01T00:11:03;-2.60;99.90
11944;DHT22;6031;50.220;10.122;2023-03-01T00:13:29;-2.60;1.00
11944;DHT22;6031;50.220;10.122;2023-03-01T00:15:55;-2.60;1.00
11944;DHT22;6031;50.220;10.122;2023-03-01T00:18:20;-2.50;1.00
11944;DHT22;6031;50.220;10.122;2023-03-01T00:20:52;-2.50;1.00
11944;DHT22;6031;50.220;10.122;2023-03-01T00:23:18;-2.50;1.00
11944;DHT22;6031;50.220;10.122;2023-03-01T00:25:43;-2.50;1.00
11944;DHT22;6031;50.220;10.122;2023-03-01T00:28:09;-2.50;1.00
11944;DHT22;6031;50.220;10.122;2023-03-01T00:30:34;-2.50;1.00
11944;DHT22;6031;50.220;10.122;2023-03-01T00:33:00;-2.40;1.00
11944;DHT22;6031;50.220;10.122;2023-03-01T00:35:26;-2.50;1.00
11944;DHT22;6031;50.220;10.122;2023-03-01T00:37:51;-2.50;1.00
11944;DHT22;6031;50.220;10.122;2023-03-01T00:40:23;-2.50;1.00
11944;DHT22;6031;50.220;10.122;2023-03-01T00:42:49;-2.60;1.00
11944;DHT22;6031;50.220;10.122;2023-03-01T00:45:15;-2.70;1.00
11944;DHT22;6031;50.220;10.122;2023-03-01T00:47:40;-2.70;1.00
11944;DHT22;6031;50.220;10.122;2023-03-01T00:50:06;-2.60;1.00
11944;DHT22;6031;50.220;10.122;2023-03-01T00:52:32;-2.60;1.00
11944;DHT22;6031;50.220;10.122;2023-03-01T00:54:57;-2.50;1.00
11944;DHT22;6031;50.220;10.122;2023-03-01T00:57:23;-2.50;99.90
11944;DHT22;6031;50.220;10.122;2023-03-01T00:59:49;-2.40;99.90
11944;DHT22;6031;50.220;10.122;2023-03-01T01:02:14;-2.50;51.00
11944;DHT22;6031;50.220;10.122;2023-03-01T01:04:40;-2.40;86.70
11944;DHT22;6031;50.220;10.122;2023-03-01T01:07:06;-2.30;46.10
11944;DHT22;6031;50.220;10.122;2023-03-01T01:09:31;-2.30;1.00
11944;DHT22;6031;50.220;10.122;2023-03-01T01:11:57;-2.30;1.00
11944;DHT22;6031;50.220;10.122;2023-03-01T01:14:22;-2.30;1.00
11944;DHT22;6031;50.220;10.122;2023-03-01T01:16:48;-2.30;1.00
11944;DHT22;6031;50.220;10.122;2023-03-01T01:19:14;-2.30;1.00
11944;DHT22;6031;50.220;10.122;2023-03-01T01:21:40;-2.10;1.00
11944;DHT22;6031;50.220;10.122;2023-03-01T01:24:08;-2.10;99.90
11944;DHT22;6031;50.220;10.122;2023-03-01T01:26:34;-2.10;99.90
11944;DHT22;6031;50.220;10.122;2023-03-01T01:29:02;-2.10;99.90
11944;DHT22;6031;50.220;10.122;2023-03-01T01:31:28;-2.10;99.90
11944;DHT22;6031;50.220;10.122;2023-03-01T01:33:54;-2.10;99.90
11944;DHT22;6031;50.220;10.122;2023-03-01T01:36:20;-2.10;99.90
11944;DHT22;6031;50.220;10.122;2023-03-01T01:38:46;-2.00;1.00
11944;DHT22;6031;50.220;10.122;2023-03-01T01:41:12;-2.10;1.00
11944;DHT22;6031;50.220;10.122;2023-03-01T01:43:41;-2.00;1.00
11944;DHT22;6031;50.220;10.122;2023-03-01T01:46:33;-1.90;1.00
11944;DHT22;6031;50.220;10.122;2023-03-01T01:49:07;-1.80;1.00
11944;DHT22;6031;50.220;10.122;2023-03-01T01:51:40;-1.80;1.00
11944;DHT22;6031;50.220;10.122;2023-03-01T01:54:14;-1.80;1.00
11944;DHT22;6031;50.220;10.122;2023-03-01T01:56:44;-1.80;99.90
11944;DHT22;6031;50.220;10.122;2023-03-01T01:59:12;-1.80;99.90
11944;DHT22;6031;50.220;10.122;2023-03-01T02:01:38;-1.80;99.90
11944;DHT22;6031;50.220;10.122;2023-03-01T02:04:04;-1.80;99.90
11944;DHT22;6031;50.220;10.122;2023-03-01T02:06:34;-1.90;99.90
11944;DHT22;6031;50.220;10.122;2023-03-01T02:09:07;-1.90;99.90
11944;DHT22;6031;50.220;10.122;2023-03-01T02:11:33;-2.00;99.90
11944;DHT22;6031;50.220;10.122;2023-03-01T02:13:59;-2.10;99.90
11944;DHT22;6031;50.220;10.122;2023-03-01T02:16:25;-2.10;99.90
11944;DHT22;6031;50.220;10.122;2023-03-01T02:18:52;-2.10;1.00
11944;DHT22;6031;50.220;10.122;2023-03-01T02:21:38;-2.10;1.00
11944;DHT22;6031;50.220;10.122;2023-03-01T02:24:28;-2.10;1.00
11944;DHT22;6031;50.220;10.122;2023-03-01T02:26:57;-2.10;1.00
11944;DHT22;6031;50.220;10.122;2023-03-01T02:29:24;-2.00;99.90
11944;DHT22;6031;50.220;10.122;2023-03-01T02:31:51;-2.00;99.90
11944;DHT22;6031;50.220;10.122;2023-03-01T02:34:20;-2.10;99.90
11944;DHT22;6031;50.220;10.122;2023-03-01T02:37:00;-2.00;99.90
11944;DHT22;6031;50.220;10.122;2023-03-01T02:39:28;-2.00;99.90
11944;DHT22;6031;50.220;10.122;2023-03-01T02:41:56;-2.00;99.90
11944;DHT22;6031;50.220;10.122;2023-03-01T02:44:23;-2.00;99.90
11944;DHT22;6031;50.220;10.122;2023-03-01T02:46:51;-2.00;99.90
11944;DHT22;6031;50.220;10.122;2023-03-01T02:49:23;-2.10;99.90
11944;DHT22;6031;50.220;10.122;2023-03-01T02:52:14;-2.10;99.90
11944;DHT22;6031;50.220;10.122;2023-03-01T02:54:51;-2.10;99.90
11944;DHT22;6031;50.220;10.122;2023-03-01T02:57:19;-2.20;99.90
11944;DHT22;6031;50.220;10.122;2023-03-01T02:59:47;-2.20;99.90
11944;DHT22;6031;50.220;10.122;2023-03-01T03:02:31;-2.10;99.90
11944;DHT22;6031;50.220;10.122;2023-03-01T03:05:09;-2.10;1.00
11944;DHT22;6031;50.220;10.122;2023-03-01T03:07:37;-2.10;99.90
11944;DHT22;6031;50.220;10.122;2023-03-01T03:10:04;-2.00;99.90
11944;DHT22;6031;50.220;10.122;2023-03-01T03:12:30;-1.90;99.90
11944;DHT22;6031;50.220;10.122;2023-03-01T03:14:56;-1.90;60.00
11944;DHT22;6031;50.220;10.122;2023-03-01T03:17:21;-1.80;1.00
11944;DHT22;6031;50.220;10.122;2023-03-01T03:19:47;-1.80;1.00
11944;DHT22;6031;50.220;10.122;2023-03-01T03:22:12;-1.90;1.00
11944;DHT22;6031;50.220;10.122;2023-03-01T03:24:38;-1.90;1.00
11944;DHT22;6031;50.220;10.122;2023-03-01T03:27:04;-1.90;1.00
11944;DHT22;6031;50.220;10.122;2023-03-01T03:29:30;-1.90;1.00
11944;DHT22;6031;50.220;10.122;2023-03-01T03:31:56;-1.90;1.00
11944;DHT22;6031;50.220;10.122;2023-03-01T03:34:21;-1.90;1.00
11944;DHT22;6031;50.220;10.122;2023-03-01T03:36:47;-2.00;1.00
11944;DHT22;6031;50.220;10.122;2023-03-01T03:39:12;-2.00;75.70
11944;DHT22;6031;50.220;10.122;2023-03-01T03:41:38;-1.90;99.90
11944;DHT22;6031;50.220;10.122;2023-03-01T03:44:03;-1.90;7.90
11944;DHT22;6031;50.220;10.122;2023-03-01T03:46:29;-2.00;1.00
11944;DHT22;6031;50.220;10.122;2023-03-01T03:48:55;-2.00;99.90
11944;DHT22;6031;50.220;10.122;2023-03-01T03:51:20;-1.90;1.00
11944;DHT22;6031;50.220;10.122;2023-03-01T03:53:48;-2.00;1.00
11944;DHT22;6031;50.220;10.122;2023-03-01T03:56:13;-2.10;1.00
11944;DHT22;6031;50.220;10.122;2023-03-01T03:58:39;-2.20;14.60
11944;DHT22;6031;50.220;10.122;2023-03-01T04:01:05;-2.30;19.70
11944;DHT22;6031;50.220;10.122;2023-03-01T04:03:32;-2.40;99.90
11944;DHT22;6031;50.220;10.122;2023-03-01T04:06:00;-2.30;99.90
11944;DHT22;6031;50.220;10.122;2023-03-01T04:08:26;-2.30;99.90
11944;DHT22;6031;50.220;10.122;2023-03-01T04:10:56;-2.20;99.90
11944;DHT22;6031;50.220;10.122;2023-03-01T04:13:23;-2.10;99.90
11944;DHT22;6031;50.220;10.122;2023-03-01T04:15:51;-2.20;22.80
11944;DHT22;6031;50.220;10.122;2023-03-01T04:18:19;-2.20;99.90
11944;DHT22;6031;50.220;10.122;2023-03-01T04:20:46;-2.10;99.90
11944;DHT22;6031;50.220;10.122;2023-03-01T04:23:17;-2.00;4.60
11944;DHT22;6031;50.220;10.122;2023-03-01T04:25:53;-2.00;1.00
11944;DHT22;6031;50.220;10.122;2023-03-01T04:28:26;-1.90;1.00
11944;DHT22;6031;50.220;10.122;2023-03-01T04:30:52;-1.90;1.00
11944;DHT22;6031;50.220;10.122;2023-03-01T04:33:18;-1.90;1.00
11944;DHT22;6031;50.220;10.122;2023-03-01T04:35:44;-1.80;1.00
11944;DHT22;6031;50.220;10.122;2023-03-01T04:38:09;-1.80;1.00
11944;DHT22;6031;50.220;10.122;2023-03-01T04:40:36;-1.90;1.00
11944;DHT22;6031;50.220;10.122;2023-03-01T04:43:03;-1.90;1.00
11944;DHT22;6031;50.220;10.122;2023-03-01T04:45:28;-1.90;1.00
11944;DHT22;6031;50.220;10.122;2023-03-01T04:47:54;-1.90;1.00
11944;DHT22;6031;50.220;10.122;2023-03-01T04:50:20;-1.90;1.00
11944;DHT22;6031;50.220;10.122;2023-03-01T04:52:47;-1.90;1.00
11944;DHT22;6031;50.220;10.122;2023-03-01T04:55:13;-1.80;1.00
11944;DHT22;6031;50.220;10.122;2023-03-01T04:57:39;-1.80;1.00
11944;DHT22;6031;50.220;10.122;2023-03-01T05:00:07;-1.80;1.00
11944;DHT22;6031;50.220;10.122;2023-03-01T05:02:49;-1.80;1.00
11944;DHT22;6031;50.220;10.122;2023-03-01T05:05:19;-1.70;1.00
11944;DHT22;6031;50.220;10.122;2023-03-01T05:07:45;-1.70;99.90
11944;DHT22;6031;50.220;10.122;2023-03-01T05:10:10;-1.70;99.90
11944;DHT22;6031;50.220;10.122;2023-03-01T05:12:36;-1.70;99.90
11944;DHT22;6031;50.220;10.122;2023-03-01T05:15:03;-1.70;99.90
11944;DHT22;6031;50.220;10.122;2023-03-01T05:17:33;-1.80;99.90
11944;DHT22;6031;50.220;10.122;2023-03-01T05:19:58;-1.80;99.90
11944;DHT22;6031;50.220;10.122;2023-03-01T05:22:24;-1.90;99.90
11944;DHT22;6031;50.220;10.122;2023-03-01T05:24:50;-1.90;99.90
11944;DHT22;6031;50.220;10.122;2023-03-01T05:27:15;-2.00;99.90
11944;DHT22;6031;50.220;10.122;2023-03-01T05:29:41;-2.00;99.90
11944;DHT22;6031;50.220;10.122;2023-03-01T05:32:06;-2.00;1.00
11944;DHT22;6031;50.220;10.122;2023-03-01T05:34:35;-2.00;1.00
11944;DHT22;6031;50.220;10.122;2023-03-01T05:37:02;-2.00;1.00
11944;DHT22;6031;50.220;10.122;2023-03-01T05:39:29;-1.90;1.00
11944;DHT22;6031;50.220;10.122;2023-03-01T05:41:59;-2.00;1.00
11944;DHT22;6031;50.220;10.122;2023-03-01T05:44:27;-2.00;1.00
11944;DHT22;6031;50.220;10.122;2023-03-01T05:46:53;-2.10;99.90
11944;DHT22;6031;50.220;10.122;2023-03-01T05:49:19;-2.20;1.00
11944;DHT22;6031;50.220;10.122;2023-03-01T05:51:51;-2.10;1.00
11944;DHT22;6031;50.220;10.122;2023-03-01T05:54:17;-2.10;1.00
11944;DHT22;6031;50.220;10.122;2023-03-01T05:56:44;-2.10;1.00
11944;DHT22;6031;50.220;10.122;2023-03-01T05:59:10;-2.20;1.00
11944;DHT22;6031;50.220;10.122;2023-03-01T06:01:36;-2.20;1.00
11944;DHT22;6031;50.220;10.122;2023-03-01T06:04:02;-2.20;1.00
11944;DHT22;6031;50.220;10.122;2023-03-01T06:06:28;-2.20;1.00
11944;DHT22;6031;50.220;10.122;2023-03-01T06:08:54;-2.10;1.00
11944;DHT22;6031;50.220;10.122;2023-03-01T06:11:21;-2.10;1.00
11944;DHT22;6031;50.220;10.122;2023-03-01T06:13:47;-2.10;1.00
11944;DHT22;6031;50.220;10.122;2023-03-01T06:16:13;-2.10;1.00
11944;DHT22;6031;50.220;10.122;2023-03-01T06:18:40;-2.00;1.00
11944;DHT22;6031;50.220;10.122;2023-03-01T06:21:07;-2.10;1.00
11944;DHT22;6031;50.220;10.122;2023-03-01T06:23:32;-2.00;1.00
11944;DHT22;6031;50.220;10.122;2023-03-01T06:25:58;-2.10;1.00
11944;DHT22;6031;50.220;10.122;2023-03-01T06:28:24;-2.10;1.00
11944;DHT22;6031;50.220;10.122;2023-03-01T06:30:50;-2.10;1.00
11944;DHT22;6031;50.220;10.122;2023-03-01T06:33:17;-2.10;37.30
11944;DHT22;6031;50.220;10.122;2023-03-01T06:35:48;-2.10;1.00
11944;DHT22;6031;50.220;10.122;2023-03-01T06:38:13;-2.20;1.00
11944;DHT22;6031;50.220;10.122;2023-03-01T06:40:44;-2.10;1.00
11944;DHT22;6031;50.220;10.122;2023-03-01T06:43:10;-2.10;14.10
11944;DHT22;6031;50.220;10.122;2023-03-01T06:45:37;-2.10;15.20
11944;DHT22;6031;50.220;10.122;2023-03-01T06:48:04;-2.10;99.90
11944;DHT22;6031;50.220;10.122;2023-03-01T06:50:30;-2.10;1.00
11944;DHT22;6031;50.220;10.122;2023-03-01T06:52:56;-2.00;25.90
11944;DHT22;6031;50.220;10.122;2023-03-01T06:55:22;-2.00;32.60
11944;DHT22;6031;50.220;10.122;2023-03-01T06:57:47;-1.90;1.00
11944;DHT22;6031;50.220;10.122;2023-03-01T07:00:13;-2.00;1.00
11944;DHT22;6031;50.220;10.122;2023-03-01T07:02:39;-2.00;1.00
11944;DHT22;6031;50.220;10.122;2023-03-01T07:05:05;-1.90;1.00
11944;DHT22;6031;50.220;10.122;2023-03-01T07:07:30;-1.90;1.00
11944;DHT22;6031;50.220;10.122;2023-03-01T07:09:56;-1.80;1.00
11944;DHT22;6031;50.220;10.122;2023-03-01T07:12:21;-1.70;1.00
11944;DHT22;6031;50.220;10.122;2023-03-01T07:14:47;-1.70;1.00
11944;DHT22;6031;50.220;10.122;2023-03-01T07:17:12;-1.60;1.00
11944;DHT22;6031;50.220;10.122;2023-03-01T07:19:38;-1.50;99.90
11944;DHT22;6031;50.220;10.122;2023-03-01T07:22:04;-1.50;99.90
11944;DHT22;6031;50.220;10.122;2023-03-01T07:24:29;-1.40;99.90
11944;DHT22;6031;50.220;10.122;2023-03-01T07:26:55;-1.10;1.00
11944;DHT22;6031;50.220;10.122;2023-03-01T07:29:20;-1.10;1.00
11944;DHT22;6031;50.220;10.122;2023-03-01T07:31:46;-1.00;1.00
11944;DHT22;6031;50.220;10.122;2023-03-01T07:34:12;-1.00;1.00
11944;DHT22;6031;50.220;10.122;2023-03-01T07:36:37;-0.90;1.00
11944;DHT22;6031;50.220;10.122;2023-03-01T07:39:04;-0.90;1.00
11944;DHT22;6031;50.220;10.122;2023-03-01T07:41:30;-0.80;1.00
11944;DHT22;6031;50.220;10.122;2023-03-01T07:43:55;-0.80;99.90
11944;DHT22;6031;50.220;10.122;2023-03-01T07:46:21;-0.70;99.90
11944;DHT22;6031;50.220;10.122;2023-03-01T07:48:47;-0.60;99.90
11944;DHT22;6031;50.220;10.122;2023-03-01T07:51:12;-0.50;99.90
11944;DHT22;6031;50.220;10.122;2023-03-01T07:53:38;-0.40;99.90
11944;DHT22;6031;50.220;10.122;2023-03-01T07:58:31;-0.30;1.00
11944;DHT22;6031;50.220;10.122;2023-03-01T08:01:04;-0.20;1.00
11944;DHT22;6031;50.220;10.122;2023-03-01T08:03:30;0.00;1.00
11944;DHT22;6031;50.220;10.122;2023-03-01T08:05:58;0.10;1.00
11944;DHT22;6031;50.220;10.122;2023-03-01T08:08:24;0.20;1.00
11944;DHT22;6031;50.220;10.122;2023-03-01T08:10:49;0.30;1.00
11944;DHT22;6031;50.220;10.122;2023-03-01T08:13:15;0.40;1.00
11944;DHT22;6031;50.220;10.122;2023-03-01T08:15:40;0.50;1.00
11944;DHT22;6031;50.220;10.122;2023-03-01T08:18:06;1.40;1.00
11944;DHT22;6031;50.220;10.122;2023-03-01T08:20:32;3.10;1.00
11944;DHT22;6031;50.220;10.122;2023-03-01T08:22:58;4.90;99.90
11944;DHT22;6031;50.220;10.122;2023-03-01T08:25:23;6.50;1.00
11944;DHT22;6031;50.220;10.122;2023-03-01T08:27:49;7.30;1.00
11944;DHT22;6031;50.220;10.122;2023-03-01T08:30:15;7.80;1.00
11944;DHT22;6031;50.220;10.122;2023-03-01T08:32:40;8.70;1.00
11944;DHT22;6031;50.220;10.122;2023-03-01T08:35:06;9.10;1.00
11944;DHT22;6031;50.220;10.122;2023-03-01T08:37:32;9.00;1.00
11944;DHT22;6031;50.220;10.122;2023-03-01T08:39:59;8.90;1.00
11944;DHT22;6031;50.220;10.122;2023-03-01T08:42:25;8.80;1.00
11944;DHT22;6031;50.220;10.122;2023-03-01T08:44:51;8.50;1.00
11944;DHT22;6031;50.220;10.122;2023-03-01T08:47:16;9.20;1.00
11944;DHT22;6031;50.220;10.122;2023-03-01T08:49:42;9.70;1.00
11944;DHT22;6031;50.220;10.122;2023-03-01T08:52:07;10.40;1.00
11944;DHT22;6031;50.220;10.122;2023-03-01T08:54:33;10.50;1.00
11944;DHT22;6031;50.220;10.122;2023-03-01T08:57:01;10.70;1.00
11944;DHT22;6031;50.220;10.122;2023-03-01T08:59:27;11.30;1.00
11944;DHT22;6031;50.220;10.122;2023-03-01T09:01:54;11.70;1.00
11944;DHT22;6031;50.220;10.122;2023-03-01T09:04:20;12.60;1.00
11944;DHT22;6031;50.220;10.122;2023-03-01T09:06:45;12.00;1.00
11944;DHT22;6031;50.220;10.122;2023-03-01T09:09:14;11.50;1.00
11944;DHT22;6031;50.220;10.122;2023-03-01T09:11:41;11.40;1.00
11944;DHT22;6031;50.220;10.122;2023-03-01T09:14:06;12.20;1.00
11944;DHT22;6031;50.220;10.122;2023-03-01T09:16:32;12.50;1.00
11944;DHT22;6031;50.220;10.122;2023-03-01T09:19:01;13.00;1.00
11944;DHT22;6031;50.220;10.122;2023-03-01T09:21:27;13.00;1.00
11944;DHT22;6031;50.220;10.122;2023-03-01T09:23:52;11.80;1.00
11944;DHT22;6031;50.220;10.122;2023-03-01T09:26:20;12.50;1.00
11944;DHT22;6031;50.220;10.122;2023-03-01T09:28:47;12.40;1.00
11944;DHT22;6031;50.220;10.122;2023-03-01T09:31:15;13.00;1.00
11944;DHT22;6031;50.220;10.122;2023-03-01T09:33:41;12.70;1.00
11944;DHT22;6031;50.220;10.122;2023-03-01T09:36:12;12.40;1.00
11944;DHT22;6031;50.220;10.122;2023-03-01T09:38:38;13.10;1.00
11944;DHT22;6031;50.220;10.122;2023-03-01T09:41:11;13.40;1.00
11944;DHT22;6031;50.220;10.122;2023-03-01T09:43:52;14.30;1.00
11944;DHT22;6031;50.220;10.122;2023-03-01T09:46:21;13.00;1.00
11944;DHT22;6031;50.220;10.122;2023-03-01T09:49:01;12.60;1.00
11944;DHT22;6031;50.220;10.122;2023-03-01T09:51:33;13.30;1.00
11944;DHT22;6031;50.220;10.122;2023-03-01T09:54:02;13.50;1.00
11944;DHT22;6031;50.220;10.122;2023-03-01T09:56:46;13.10;1.00
11944;DHT22;6031;50.220;10.122;2023-03-01T10:08:11;12.90;1.00
11944;DHT22;6031;50.220;10.122;2023-03-01T10:10:44;14.40;1.00
11944;DHT22;6031;50.220;10.122;2023-03-01T10:13:37;14.70;1.00
11944;DHT22;6031;50.220;10.122;2023-03-01T10:18:58;15.10;1.00
11944;DHT22;6031;50.220;10.122;2023-03-01T10:21:27;14.60;1.00
11944;DHT22;6031;50.220;10.122;2023-03-01T10:23:53;15.90;1.00
11944;DHT22;6031;50.220;10.122;2023-03-01T10:29:10;16.30;1.00
11944;DHT22;6031;50.220;10.122;2023-03-01T10:31:44;14.10;1.00
11944;DHT22;6031;50.220;10.122;2023-03-01T10:34:32;14.20;1.00
11944;DHT22;6031;50.220;10.122;2023-03-01T10:37:09;15.70;1.00
11944;DHT22;6031;50.220;10.122;2023-03-01T10:39:35;16.00;1.00
11944;DHT22;6031;50.220;10.122;2023-03-01T10:42:04;14.40;1.00
11944;DHT22;6031;50.220;10.122;2023-03-01T10:44:43;13.80;1.00
11944;DHT22;6031;50.220;10.122;2023-03-01T10:47:23;14.30;1.00
11944;DHT22;6031;50.220;10.122;2023-03-01T10:52:27;14.00;1.00
11944;DHT22;6031;50.220;10.122;2023-03-01T10:55:04;14.40;1.00
11944;DHT22;6031;50.220;10.122;2023-03-01T10:57:41;15.30;1.00
11944;DHT22;6031;50.220;10.122;2023-03-01T11:00:24;14.70;1.00
11944;DHT22;6031;50.220;10.122;2023-03-01T11:05:25;14.70;1.00
11944;DHT22;6031;50.220;10.122;2023-03-01T11:07:56;14.50;1.00
11944;DHT22;6031;50.220;10.122;2023-03-01T11:12:51;14.70;1.00
11944;DHT22;6031;50.220;10.122;2023-03-01T11:15:25;15.50;1.00
11944;DHT22;6031;50.220;10.122;2023-03-01T11:17:51;15.40;1.00
11944;DHT22;6031;50.220;10.122;2023-03-01T11:20:45;15.90;1.00
11944;DHT22;6031;50.220;10.122;2023-03-01T11:23:13;16.40;1.00
11944;DHT22;6031;50.220;10.122;2023-03-01T11:25:44;16.10;1.00
11944;DHT22;6031;50.220;10.122;2023-03-01T11:28:16;14.80;1.00
11944;DHT22;6031;50.220;10.122;2023-03-01T11:30:58;14.40;1.00
11944;DHT22;6031;50.220;10.122;2023-03-01T11:36:05;15.50;1.00
11944;DHT22;6031;50.220;10.122;2023-03-01T11:38:34;16.20;1.00
11944;DHT22;6031;50.220;10.122;2023-03-01T11:41:14;17.00;1.00
11944;DHT22;6031;50.220;10.122;2023-03-01T11:43:53;17.00;1.00
11944;DHT22;6031;50.220;10.122;2023-03-01T11:55:00;16.20;1.00
11944;DHT22;6031;50.220;10.122;2023-03-01T12:03:50;16.40;1.00
11944;DHT22;6031;50.220;10.122;2023-03-01T12:12:30;17.50;1.00
11944;DHT22;6031;50.220;10.122;2023-03-01T12:15:28;15.80;1.00
11944;DHT22;6031;50.220;10.122;2023-03-01T12:18:25;17.90;1.00
11944;DHT22;6031;50.220;10.122;2023-03-01T12:29:37;17.90;1.00
11944;DHT22;6031;50.220;10.122;2023-03-01T12:35:20;17.10;1.00
11944;DHT22;6031;50.220;10.122;2023-03-01T12:37:59;16.60;1.00
11944;DHT22;6031;50.220;10.122;2023-03-01T12:41:04;16.40;1.00
11944;DHT22;6031;50.220;10.122;2023-03-01T12:49:14;18.10;1.00
11944;DHT22;6031;50.220;10.122;2023-03-01T12:51:44;17.90;1.00
11944;DHT22;6031;50.220;10.122;2023-03-01T12:54:25;16.70;1.00
11944;DHT22;6031;50.220;10.122;2023-03-01T12:56:52;16.60;1.00
11944;DHT22;6031;50.220;10.122;2023-03-01T12:59:39;16.80;1.00
11944;DHT22;6031;50.220;10.122;2023-03-01T13:02:30;17.70;1.00
11944;DHT22;6031;50.220;10.122;2023-03-01T13:07:44;15.70;1.00
11944;DHT22;6031;50.220;10.122;2023-03-01T13:10:29;15.70;1.00
11944;DHT22;6031;50.220;10.122;2023-03-01T13:13:02;16.30;1.00
11944;DHT22;6031;50.220;10.122;2023-03-01T13:15:37;16.70;1.00
11944;DHT22;6031;50.220;10.122;2023-03-01T13:20:58;16.60;1.00
11944;DHT22;6031;50.220;10.122;2023-03-01T13:23:26;15.30;1.00
11944;DHT22;6031;50.220;10.122;2023-03-01T13:31:05;14.40;1.00
11944;DHT22;6031;50.220;10.122;2023-03-01T13:35:58;15.70;1.00
11944;DHT22;6031;50.220;10.122;2023-03-01T13:38:38;15.10;1.00
11944;DHT22;6031;50.220;10.122;2023-03-01T13:41:04;14.80;1.00
11944;DHT22;6031;50.220;10.122;2023-03-01T13:43:38;13.80;1.00
11944;DHT22;6031;50.220;10.122;2023-03-01T13:46:24;13.00;1.00
11944;DHT22;6031;50.220;10.122;2023-03-01T13:48:52;14.50;1.00
11944;DHT22;6031;50.220;10.122;2023-03-01T13:51:23;14.20;1.00
11944;DHT22;6031;50.220;10.122;2023-03-01T13:53:50;14.00;1.00
11944;DHT22;6031;50.220;10.122;2023-03-01T13:56:29;13.90;1.00
11944;DHT22;6031;50.220;10.122;2023-03-01T13:59:02;13.50;1.00
11944;DHT22;6031;50.220;10.122;2023-03-01T14:01:31;13.70;1.00
11944;DHT22;6031;50.220;10.122;2023-03-01T14:03:58;13.30;1.00
11944;DHT22;6031;50.220;10.122;2023-03-01T14:06:26;13.00;1.00
11944;DHT22;6031;50.220;10.122;2023-03-01T14:09:17;12.50;1.00
11944;DHT22;6031;50.220;10.122;2023-03-01T14:19:56;11.60;1.00
11944;DHT22;6031;50.220;10.122;2023-03-01T14:22:28;11.40;1.00
11944;DHT22;6031;50.220;10.122;2023-03-01T14:25:02;11.00;1.00
11944;DHT22;6031;50.220;10.122;2023-03-01T14:27:38;10.50;1.00
11944;DHT22;6031;50.220;10.122;2023-03-01T14:33:17;9.20;1.00
11944;DHT22;6031;50.220;10.122;2023-03-01T14:35:56;8.90;1.00
11944;DHT22;6031;50.220;10.122;2023-03-01T14:38:42;8.70;1.00
11944;DHT22;6031;50.220;10.122;2023-03-01T14:41:19;8.60;1.00
11944;DHT22;6031;50.220;10.122;2023-03-01T14:43:58;8.40;1.00
11944;DHT22;6031;50.220;10.122;2023-03-01T14:46:30;8.30;1.00
11944;DHT22;6031;50.220;10.122;2023-03-01T14:49:02;8.20;1.00
11944;DHT22;6031;50.220;10.122;2023-03-01T14:51:28;8.10;1.00
11944;DHT22;6031;50.220;10.122;2023-03-01T14:53:55;8.20;1.00
11944;DHT22;6031;50.220;10.122;2023-03-01T14:56:20;8.00;1.00
11944;DHT22;6031;50.220;10.122;2023-03-01T14:58:50;8.00;1.00
11944;DHT22;6031;50.220;10.122;2023-03-01T15:01:17;7.80;1.00
11944;DHT22;6031;50.220;10.122;2023-03-01T15:03:46;7.80;1.00
11944;DHT22;6031;50.220;10.122;2023-03-01T15:06:16;7.80;1.00
11944;DHT22;6031;50.220;10.122;2023-03-01T15:08:46;7.80;1.00
11944;DHT22;6031;50.220;10.122;2023-03-01T15:11:32;7.70;1.00
11944;DHT22;6031;50.220;10.122;2023-03-01T15:13:58;7.60;1.00
11944;DHT22;6031;50.220;10.122;2023-03-01T15:16:34;7.60;1.00
11944;DHT22;6031;50.220;10.122;2023-03-01T15:19:06;7.50;1.00
11944;DHT22;6031;50.220;10.122;2023-03-01T15:21:37;7.30;1.00
11944;DHT22;6031;50.220;10.122;2023-03-01T15:26:50;7.20;1.00
11944;DHT22;6031;50.220;10.122;2023-03-01T15:29:21;7.10;1.00
11944;DHT22;6031;50.220;10.122;2023-03-01T15:32:03;7.00;1.00
11944;DHT22;6031;50.220;10.122;2023-03-01T15:36:56;6.90;1.00
11944;DHT22;6031;50.220;10.122;2023-03-01T15:39:40;6.90;1.00
11944;DHT22;6031;50.220;10.122;2023-03-01T15:42:13;6.80;1.00
11944;DHT22;6031;50.220;10.122;2023-03-01T15:47:47;6.60;1.00
11944;DHT22;6031;50.220;10.122;2023-03-01T15:50:23;6.60;1.00
11944;DHT22;6031;50.220;10.122;2023-03-01T15:52:49;6.60;1.00
11944;DHT22;6031;50.220;10.122;2023-03-01T15:55:25;6.50;1.00
11944;DHT22;6031;50.220;10.122;2023-03-01T15:58:03;6.40;1.00
11944;DHT22;6031;50.220;10.122;2023-03-01T16:00:29;6.30;1.00
11944;DHT22;6031;50.220;10.122;2023-03-01T16:02:56;6.30;1.00
11944;DHT22;6031;50.220;10.122;2023-03-01T16:05:31;6.20;1.00
11944;DHT22;6031;50.220;10.122;2023-03-01T16:07:57;6.10;1.00
11944;DHT22;6031;50.220;10.122;2023-03-01T16:10:23;6.10;1.00
11944;DHT22;6031;50.220;10.122;2023-03-01T16:12:50;6.00;1.00
11944;DHT22;6031;50.220;10.122;2023-03-01T16:15:29;5.90;1.00
11944;DHT22;6031;50.220;10.122;2023-03-01T16:17:55;5.80;1.00
11944;DHT22;6031;50.220;10.122;2023-03-01T16:20:21;5.90;1.00
11944;DHT22;6031;50.220;10.122;2023-03-01T16:22:47;5.80;1.00
11944;DHT22;6031;50.220;10.122;2023-03-01T16:25:15;5.70;1.00
11944;DHT22;6031;50.220;10.122;2023-03-01T16:27:42;5.70;1.00
11944;DHT22;6031;50.220;10.122;2023-03-01T16:30:09;5.60;1.00
11944;DHT22;6031;50.220;10.122;2023-03-01T16:32:38;5.50;1.00
11944;DHT22;6031;50.220;10.122;2023-03-01T16:35:05;5.50;1.00
11944;DHT22;6031;50.220;10.122;2023-03-01T16:37:32;5.40;1.00
11944;DHT22;6031;50.220;10.122;2023-03-01T16:39:58;5.40;1.00
11944;DHT22;6031;50.220;10.122;2023-03-01T16:42:24;5.30;1.00
11944;DHT22;6031;50.220;10.122;2023-03-01T16:44:57;5.20;1.00
11944;DHT22;6031;50.220;10.122;2023-03-01T16:47:22;5.10;1.00
11944;DHT22;6031;50.220;10.122;2023-03-01T16:49:52;5.00;1.00
11944;DHT22;6031;50.220;10.122;2023-03-01T16:52:18;5.00;1.00
11944;DHT22;6031;50.220;10.122;2023-03-01T16:54:43;4.80;1.00
11944;DHT22;6031;50.220;10.122;2023-03-01T16:57:09;4.70;1.00
11944;DHT22;6031;50.220;10.122;2023-03-01T16:59:34;4.60;1.00
11944;DHT22;6031;50.220;10.122;2023-03-01T17:02:00;4.60;1.00
11944;DHT22;6031;50.220;10.122;2023-03-01T17:04:25;4.50;1.00
11944;DHT22;6031;50.220;10.122;2023-03-01T17:06:51;4.40;1.00
11944;DHT22;6031;50.220;10.122;2023-03-01T17:09:16;4.40;1.00
11944;DHT22;6031;50.220;10.122;2023-03-01T17:11:42;4.30;1.00
11944;DHT22;6031;50.220;10.122;2023-03-01T17:14:08;4.20;1.00
11944;DHT22;6031;50.220;10.122;2023-03-01T17:16:34;4.10;1.00
11944;DHT22;6031;50.220;10.122;2023-03-01T17:19:00;4.10;1.00
11944;DHT22;6031;50.220;10.122;2023-03-01T17:21:26;4.00;1.00
11944;DHT22;6031;50.220;10.122;2023-03-01T17:23:55;4.00;1.00
11944;DHT22;6031;50.220;10.122;2023-03-01T17:26:21;4.00;1.00
11944;DHT22;6031;50.220;10.122;2023-03-01T17:28:46;3.90;1.00
11944;DHT22;6031;50.220;10.122;2023-03-01T17:31:16;3.80;1.00
11944;DHT22;6031;50.220;10.122;2023-03-01T17:33:42;3.70;1.00
11944;DHT22;6031;50.220;10.122;2023-03-01T17:36:07;3.60;1.00
11944;DHT22;6031;50.220;10.122;2023-03-01T17:38:33;3.60;6.50